Time,TemperatureF,DewpointF,PressureIn,WindDirection,WindDirectionDegrees,WindSpeedMPH,WindSpeedGustMPH,Humidity,HourlyPrecipIn,Conditions,Clouds,dailyrainin,SoftwareType,DateUTC
2013-05-13 00:01:00,67.0,43.0,-100.00,SSE,166,0.0,1.0,41,-99.99,,,-99.99,,2013-05-13 07:01:00,
2013-05-13 00:11:00,67.0,44.0,-100.00,West,269,0.0,1.0,44,-99.99,,,-99.99,,2013-05-13 07:11:00,
2013-05-13 00:21:00,67.0,43.0,-100.00,ENE,63,1.0,2.0,42,-99.99,,,-99.99,,2013-05-13 07:21:00,
2013-05-13 00:31:00,67.0,43.0,-100.00,SE,142,0.0,2.0,41,-99.99,,,-99.99,,2013-05-13 07:31:00,
2013-05-13 00:41:00,67.0,43.0,-100.00,ENE,63,1.0,1.0,41,-99.99,,,-99.99,,2013-05-13 07:41:00,
2013-05-13 00:52:00,70.0,40.0,-100.00,East,82,1.0,1.0,34,-99.99,,,-99.99,,2013-05-13 07:52:00,
2013-05-13 01:01:00,66.0,43.0,-100.00,SSW,213,0.0,1.0,43,-99.99,,,-99.99,,2013-05-13 08:01:00,
2013-05-13 01:11:00,65.0,43.0,-100.00,South,176,0.0,1.0,44,-99.99,,,-99.99,,2013-05-13 08:11:00,
2013-05-13 01:21:00,64.0,44.0,-100.00,WSW,252,0.0,1.0,49,-99.99,,,-99.99,,2013-05-13 08:21:00,
2013-05-13 01:31:00,64.0,44.0,-100.00,East,85,1.0,1.0,48,-99.99,,,-99.99,,2013-05-13 08:31:00,
2013-05-13 01:41:00,63.0,43.0,-100.00,ESE,112,0.0,1.0,48,-99.99,,,-99.99,,2013-05-13 08:41:00,
2013-05-13 01:51:00,63.0,42.0,-100.00,East,96,0.0,1.0,47,-99.99,,,-99.99,,2013-05-13 08:51:00,
2013-05-13 02:01:00,63.0,41.0,-100.00,East,96,0.0,1.0,45,-99.99,,,-99.99,,2013-05-13 09:01:00,
2013-05-13 02:11:00,63.0,42.0,-100.00,East,99,0.0,1.0,46,-99.99,,,-99.99,,2013-05-13 09:11:00,
2013-05-13 02:21:00,62.0,42.0,-100.00,South,177,0.0,1.0,48,-99.99,,,-99.99,,2013-05-13 09:21:00,
2013-05-13 02:32:00,62.0,43.0,-100.00,SSE,162,0.0,1.0,49,-99.99,,,-99.99,,2013-05-13 09:32:00,
2013-05-13 02:42:00,62.0,43.0,-100.00,SSE,161,0.0,1.0,49,-99.99,,,-99.99,,2013-05-13 09:42:00,
2013-05-13 02:52:00,62.0,42.0,-100.00,SSE,160,0.0,1.0,48,-99.99,,,-99.99,,2013-05-13 09:52:00,
2013-05-13 03:02:00,61.0,42.0,-100.00,SSE,160,0.0,1.0,49,-99.99,,,-99.99,,2013-05-13 10:02:00,
2013-05-13 03:12:00,61.0,42.0,-100.00,SE,138,1.0,2.0,49,-99.99,,,-99.99,,2013-05-13 10:12:00,
2013-05-13 03:22:00,62.0,40.0,-100.00,East,80,1.0,2.0,45,-99.99,,,-99.99,,2013-05-13 10:22:00,
2013-05-13 03:32:00,61.0,41.0,-100.00,ENE,75,0.0,1.0,48,-99.99,,,-99.99,,2013-05-13 10:32:00,
2013-05-13 03:42:00,60.0,41.0,-100.00,East,85,0.0,1.0,50,-99.99,,,-99.99,,2013-05-13 10:42:00,
2013-05-13 03:52:00,60.0,41.0,-100.00,East,93,0.0,1.0,50,-99.99,,,-99.99,,2013-05-13 10:52:00,
2013-05-13 04:02:00,60.0,40.0,-100.00,East,89,0.0,1.0,48,-99.99,,,-99.99,,2013-05-13 11:02:00,
2013-05-13 04:12:00,60.0,41.0,-100.00,WSW,256,0.0,1.0,49,-99.99,,,-99.99,,2013-05-13 11:12:00,
2013-05-13 04:21:00,60.0,41.0,-100.00,ESE,107,0.0,1.0,49,-99.99,,,-99.99,,2013-05-13 11:21:00,
2013-05-13 04:32:00,59.0,40.0,-100.00,WSW,243,0.0,1.0,50,-99.99,,,-99.99,,2013-05-13 11:32:00,
2013-05-13 04:41:00,59.0,40.0,-100.00,West,272,0.0,1.0,50,-99.99,,,-99.99,,2013-05-13 11:41:00,
2013-05-13 04:51:00,60.0,40.0,-100.00,NW,326,0.0,1.0,48,-99.99,,,-99.99,,2013-05-13 11:51:00,
2013-05-13 05:01:00,61.0,41.0,-100.00,North,11,0.0,2.0,47,-99.99,,,-99.99,,2013-05-13 12:01:00,
2013-05-13 05:11:00,60.0,40.0,-100.00,NNE,22,0.0,1.0,47,-99.99,,,-99.99,,2013-05-13 12:11:00,
2013-05-13 05:21:00,59.0,40.0,-100.00,West,279,0.0,1.0,50,-99.99,,,-99.99,,2013-05-13 12:21:00,
2013-05-13 05:32:00,59.0,40.0,-100.00,West,279,0.0,1.0,50,-99.99,,,-99.99,,2013-05-13 12:32:00,
2013-05-13 05:42:00,58.0,40.0,-100.00,West,259,0.0,1.0,51,-99.99,,,-99.99,,2013-05-13 12:42:00,
2013-05-13 05:51:00,58.0,40.0,-100.00,East,101,0.0,1.0,51,-99.99,,,-99.99,,2013-05-13 12:51:00,
2013-05-13 06:01:00,58.0,40.0,-100.00,East,89,0.0,1.0,51,-99.99,,,-99.99,,2013-05-13 13:01:00,
2013-05-13 06:11:00,58.0,40.0,-100.00,East,89,0.0,1.0,51,-99.99,,,-99.99,,2013-05-13 13:11:00,
2013-05-13 06:21:00,59.0,40.0,-100.00,South,170,0.0,1.0,50,-99.99,,,-99.99,,2013-05-13 13:21:00,
2013-05-13 06:31:00,58.0,40.0,-100.00,NW,323,1.0,3.0,52,-99.99,,,-99.99,,2013-05-13 13:31:00,
2013-05-13 06:41:00,61.0,40.0,-100.00,ENE,74,1.0,2.0,46,-99.99,,,-99.99,,2013-05-13 13:41:00,
2013-05-13 06:52:00,60.0,39.0,-100.00,ENE,65,1.0,2.0,46,-99.99,,,-99.99,,2013-05-13 13:52:00,
2013-05-13 07:01:00,61.0,41.0,-100.00,NNE,21,1.0,4.0,47,-99.99,,,-99.99,,2013-05-13 14:01:00,
2013-05-13 07:11:00,62.0,40.0,-100.00,ENE,67,1.0,1.0,45,-99.99,,,-99.99,,2013-05-13 14:11:00,
2013-05-13 07:22:00,66.0,42.0,-100.00,West,261,0.0,1.0,41,-99.99,,,-99.99,,2013-05-13 14:22:00,
2013-05-13 07:31:00,66.0,42.0,-100.00,West,261,0.0,1.0,41,-99.99,,,-99.99,,2013-05-13 14:31:00,
2013-05-13 07:41:00,66.0,41.0,-100.00,SW,234,0.0,1.0,40,-99.99,,,-99.99,,2013-05-13 14:41:00,
2013-05-13 07:51:00,69.0,42.0,-100.00,SSW,192,0.0,1.0,38,-99.99,,,-99.99,,2013-05-13 14:51:00,
2013-05-13 08:01:00,69.0,42.0,-100.00,SSW,192,0.0,1.0,38,-99.99,,,-99.99,,2013-05-13 15:01:00,
2013-05-13 08:11:00,73.0,41.0,-100.00,WSW,254,1.0,3.0,32,-99.99,,,-99.99,,2013-05-13 15:11:00,
2013-05-13 08:21:00,74.0,41.0,-100.00,WSW,255,1.0,3.0,31,-99.99,,,-99.99,,2013-05-13 15:21:00,
2013-05-13 08:31:00,77.0,39.0,-100.00,ESE,107,1.0,1.0,26,-99.99,,,-99.99,,2013-05-13 15:31:00,
2013-05-13 08:42:00,81.0,40.0,-100.00,SSW,207,0.0,1.0,23,-99.99,,,-99.99,,2013-05-13 15:42:00,
2013-05-13 09:03:00,86.0,39.0,-100.00,ESE,110,1.0,2.0,19,-99.99,,,-99.99,,2013-05-13 16:03:00,
2013-05-13 09:11:00,88.0,41.0,-100.00,SE,137,1.0,1.0,19,-99.99,,,-99.99,,2013-05-13 16:11:00,
2013-05-13 09:33:00,90.0,39.0,-100.00,SSW,195,1.0,5.0,17,-99.99,,,-99.99,,2013-05-13 16:33:00,
2013-05-13 10:02:00,92.0,38.0,-100.00,WSW,250,3.0,6.0,15,-99.99,,,-99.99,,2013-05-13 17:02:00,
2013-05-13 10:12:00,92.0,38.0,-100.00,WNW,288,2.0,6.0,15,-99.99,,,-99.99,,2013-05-13 17:12:00,
2013-05-13 10:21:00,93.0,38.0,-100.00,WSW,242,3.0,8.0,15,-99.99,,,-99.99,,2013-05-13 17:21:00,
2013-05-13 10:32:00,94.0,39.0,-100.00,WSW,249,3.0,6.0,15,-99.99,,,-99.99,,2013-05-13 17:32:00,
2013-05-13 10:41:00,94.0,39.0,-100.00,WSW,238,3.0,8.0,15,-99.99,,,-99.99,,2013-05-13 17:41:00,
2013-05-13 11:03:00,96.0,39.0,-100.00,SSW,211,3.0,8.0,14,-99.99,,,-99.99,,2013-05-13 18:03:00,
2013-05-13 11:12:00,96.0,37.0,-100.00,SW,218,3.0,8.0,13,-99.99,,,-99.99,,2013-05-13 18:12:00,
2013-05-13 11:23:00,96.0,37.0,-100.00,SSW,197,3.0,10.0,13,-99.99,,,-99.99,,2013-05-13 18:23:00,
2013-05-13 11:32:00,96.0,37.0,-100.00,SSW,197,3.0,10.0,13,-99.99,,,-99.99,,2013-05-13 18:32:00,
2013-05-13 11:51:00,97.0,38.0,-100.00,SW,228,4.0,8.0,13,-99.99,,,-99.99,,2013-05-13 18:51:00,
2013-05-13 12:01:00,97.0,40.0,-100.00,SW,235,5.0,11.0,14,-99.99,,,-99.99,,2013-05-13 19:01:00,
2013-05-13 12:11:00,96.0,41.0,-100.00,WSW,240,5.0,9.0,15,-99.99,,,-99.99,,2013-05-13 19:11:00,
2013-05-13 12:21:00,95.0,43.0,-100.00,WSW,252,6.0,11.0,17,-99.99,,,-99.99,,2013-05-13 19:21:00,
2013-05-13 12:32:00,95.0,42.0,-100.00,WSW,246,5.0,11.0,16,-99.99,,,-99.99,,2013-05-13 19:32:00,
2013-05-13 12:43:00,95.0,43.0,-100.00,WSW,237,5.0,9.0,17,-99.99,,,-99.99,,2013-05-13 19:43:00,
2013-05-13 13:01:00,96.0,41.0,-100.00,SW,224,4.0,11.0,15,-99.99,,,-99.99,,2013-05-13 20:01:00,
2013-05-13 13:11:00,96.0,43.0,-100.00,SW,235,6.0,11.0,16,-99.99,,,-99.99,,2013-05-13 20:11:00,
2013-05-13 13:23:00,97.0,45.0,-100.00,SW,228,4.0,9.0,17,-99.99,,,-99.99,,2013-05-13 20:23:00,
2013-05-13 13:33:00,96.0,46.0,-100.00,SW,228,4.0,10.0,18,-99.99,,,-99.99,,2013-05-13 20:33:00,
2013-05-13 13:44:00,96.0,47.0,-100.00,SW,223,4.0,9.0,19,-99.99,,,-99.99,,2013-05-13 20:44:00,
2013-05-13 13:53:00,96.0,46.0,-100.00,SW,232,6.0,13.0,18,-99.99,,,-99.99,,2013-05-13 20:53:00,
2013-05-13 14:02:00,97.0,45.0,-100.00,SW,234,5.0,12.0,17,-99.99,,,-99.99,,2013-05-13 21:02:00,
2013-05-13 14:14:00,98.0,46.0,-100.00,WSW,255,6.0,14.0,17,-99.99,,,-99.99,,2013-05-13 21:14:00,
2013-05-13 14:23:00,98.0,46.0,-100.00,WSW,251,6.0,12.0,17,-99.99,,,-99.99,,2013-05-13 21:23:00,
2013-05-13 14:33:00,99.0,41.0,-100.00,WSW,256,4.0,15.0,14,-99.99,,,-99.99,,2013-05-13 21:33:00,
2013-05-13 14:43:00,100.0,40.0,-100.00,West,267,5.0,14.0,13,-99.99,,,-99.99,,2013-05-13 21:43:00,
2013-05-13 14:53:00,99.0,40.0,-100.00,West,265,6.0,13.0,13,-99.99,,,-99.99,,2013-05-13 21:53:00,
2013-05-13 15:02:00,98.0,39.0,-100.00,West,260,6.0,12.0,13,-99.99,,,-99.99,,2013-05-13 22:02:00,
2013-05-13 15:12:00,98.0,41.0,-100.00,West,271,6.0,12.0,14,-99.99,,,-99.99,,2013-05-13 22:12:00,
2013-05-13 15:22:00,98.0,39.0,-100.00,West,262,7.0,14.0,13,-99.99,,,-99.99,,2013-05-13 22:22:00,
2013-05-13 15:32:00,99.0,37.0,-100.00,WSW,245,6.0,11.0,12,-99.99,,,-99.99,,2013-05-13 22:32:00,
2013-05-13 15:42:00,98.0,37.0,-100.00,West,268,7.0,16.0,12,-99.99,,,-99.99,,2013-05-13 22:42:00,
2013-05-13 15:52:00,98.0,39.0,-100.00,West,264,6.0,11.0,13,-99.99,,,-99.99,,2013-05-13 22:52:00,
2013-05-13 16:01:00,98.0,39.0,-100.00,West,264,6.0,11.0,13,-99.99,,,-99.99,,2013-05-13 23:01:00,
2013-05-13 16:12:00,98.0,39.0,-100.00,West,259,7.0,12.0,13,-99.99,,,-99.99,,2013-05-13 23:12:00,
2013-05-13 16:23:00,98.0,41.0,-100.00,WSW,253,4.0,15.0,14,-99.99,,,-99.99,,2013-05-13 23:23:00,
2013-05-13 16:33:00,97.0,40.0,-100.00,WSW,246,7.0,16.0,14,-99.99,,,-99.99,,2013-05-13 23:33:00,
2013-05-13 16:42:00,98.0,41.0,-100.00,West,264,6.0,11.0,14,-99.99,,,-99.99,,2013-05-13 23:42:00,
2013-05-13 16:53:00,97.0,38.0,-100.00,WSW,249,5.0,12.0,13,-99.99,,,-99.99,,2013-05-13 23:53:00,
2013-05-13 17:02:00,98.0,39.0,-100.00,West,274,4.0,10.0,13,-99.99,,,-99.99,,2013-05-14 00:02:00,
2013-05-13 17:12:00,97.0,40.0,-100.00,West,275,5.0,12.0,14,-99.99,,,-99.99,,2013-05-14 00:12:00,
2013-05-13 17:22:00,97.0,42.0,-100.00,WSW,247,5.0,12.0,15,-99.99,,,-99.99,,2013-05-14 00:22:00,
2013-05-13 17:31:00,96.0,41.0,-100.00,West,259,5.0,11.0,15,-99.99,,,-99.99,,2013-05-14 00:31:00,
2013-05-13 17:41:00,96.0,41.0,-100.00,West,259,5.0,11.0,15,-99.99,,,-99.99,,2013-05-14 00:41:00,
2013-05-13 17:51:00,96.0,43.0,-100.00,WSW,249,3.0,8.0,16,-99.99,,,-99.99,,2013-05-14 00:51:00,
2013-05-13 18:01:00,96.0,43.0,-100.00,West,269,4.0,11.0,16,-99.99,,,-99.99,,2013-05-14 01:01:00,
2013-05-13 18:11:00,95.0,45.0,-100.00,West,265,4.0,9.0,18,-99.99,,,-99.99,,2013-05-14 01:11:00,
2013-05-13 18:21:00,95.0,45.0,-100.00,West,265,4.0,9.0,18,-99.99,,,-99.99,,2013-05-14 01:21:00,
2013-05-13 18:31:00,94.0,45.0,-100.00,West,270,5.0,11.0,19,-99.99,,,-99.99,,2013-05-14 01:31:00,
2013-05-13 18:43:00,94.0,44.0,-100.00,West,273,3.0,8.0,18,-99.99,,,-99.99,,2013-05-14 01:43:00,
2013-05-13 18:52:00,93.0,38.0,-100.00,West,265,3.0,8.0,15,-99.99,,,-99.99,,2013-05-14 01:52:00,
2013-05-13 19:02:00,92.0,38.0,-100.00,West,264,5.0,11.0,15,-99.99,,,-99.99,,2013-05-14 02:02:00,
2013-05-13 19:11:00,92.0,41.0,-100.00,West,270,2.0,6.0,17,-99.99,,,-99.99,,2013-05-14 02:11:00,
2013-05-13 19:21:00,91.0,39.0,-100.00,West,267,4.0,9.0,16,-99.99,,,-99.99,,2013-05-14 02:21:00,
2013-05-13 19:31:00,91.0,39.0,-100.00,West,263,4.0,9.0,16,-99.99,,,-99.99,,2013-05-14 02:31:00,
2013-05-13 19:42:00,90.0,38.0,-100.00,West,268,3.0,9.0,16,-99.99,,,-99.99,,2013-05-14 02:42:00,
2013-05-13 19:51:00,89.0,38.0,-100.00,West,275,2.0,8.0,17,-99.99,,,-99.99,,2013-05-14 02:51:00,
2013-05-13 20:01:00,88.0,39.0,-100.00,West,262,2.0,7.0,18,-99.99,,,-99.99,,2013-05-14 03:01:00,
2013-05-13 20:11:00,87.0,38.0,-100.00,WSW,251,1.0,3.0,18,-99.99,,,-99.99,,2013-05-14 03:11:00,
2013-05-13 20:21:00,87.0,40.0,-100.00,West,259,2.0,6.0,19,-99.99,,,-99.99,,2013-05-14 03:21:00,
2013-05-13 20:32:00,86.0,39.0,-100.00,WSW,258,1.0,5.0,19,-99.99,,,-99.99,,2013-05-14 03:32:00,
2013-05-13 20:42:00,85.0,37.0,-100.00,West,266,1.0,4.0,18,-99.99,,,-99.99,,2013-05-14 03:42:00,
2013-05-13 20:52:00,85.0,38.0,-100.00,WSW,248,1.0,3.0,19,-99.99,,,-99.99,,2013-05-14 03:52:00,
2013-05-13 21:02:00,85.0,38.0,-100.00,WSW,248,1.0,3.0,19,-99.99,,,-99.99,,2013-05-14 04:02:00,
2013-05-13 21:12:00,80.0,40.0,-100.00,ENE,59,4.0,7.0,24,-99.99,,,-99.99,,2013-05-14 04:12:00,
2013-05-13 21:32:00,78.0,40.0,-100.00,NE,35,1.0,3.0,26,-99.99,,,-99.99,,2013-05-14 04:32:00,
2013-05-13 21:43:00,77.0,40.0,-100.00,NE,41,2.0,5.0,27,-99.99,,,-99.99,,2013-05-14 04:43:00,
2013-05-13 21:52:00,77.0,41.0,-100.00,NNE,16,2.0,4.0,28,-99.99,,,-99.99,,2013-05-14 04:52:00,
2013-05-13 22:01:00,76.0,42.0,-100.00,NNE,20,2.0,4.0,30,-99.99,,,-99.99,,2013-05-14 05:01:00,
2013-05-13 22:12:00,76.0,43.0,-100.00,NNE,15,1.0,3.0,31,-99.99,,,-99.99,,2013-05-14 05:12:00,
2013-05-13 22:21:00,74.0,43.0,-100.00,North,354,1.0,3.0,33,-99.99,,,-99.99,,2013-05-14 05:21:00,
2013-05-13 22:32:00,73.0,43.0,-100.00,NNE,27,2.0,3.0,34,-99.99,,,-99.99,,2013-05-14 05:32:00,
2013-05-13 22:42:00,73.0,44.0,-100.00,North,8,2.0,3.0,35,-99.99,,,-99.99,,2013-05-14 05:42:00,
2013-05-13 22:52:00,72.0,44.0,-100.00,North,11,2.0,3.0,36,-99.99,,,-99.99,,2013-05-14 05:52:00,
2013-05-13 23:01:00,71.0,43.0,-100.00,North,3,1.0,3.0,37,-99.99,,,-99.99,,2013-05-14 06:01:00,
2013-05-13 23:12:00,71.0,43.0,-100.00,North,354,1.0,2.0,36,-99.99,,,-99.99,,2013-05-14 06:12:00,
2013-05-13 23:22:00,71.0,43.0,-100.00,NE,46,1.0,3.0,36,-99.99,,,-99.99,,2013-05-14 06:22:00,
2013-05-13 23:31:00,72.0,42.0,-100.00,NE,39,2.0,3.0,34,-99.99,,,-99.99,,2013-05-14 06:31:00,
2013-05-13 23:42:00,72.0,41.0,-100.00,NE,55,1.0,2.0,33,-99.99,,,-99.99,,2013-05-14 06:42:00,
2013-05-13 23:51:00,70.0,40.0,-100.00,South,175,0.0,1.0,34,-99.99,,,-99.99,,2013-05-14 06:51:00,